Página principal
METAR-TAF:

METAR-TAF

Aeroportos :

Lossiemouth, Escócia

latitude: 57-43N, longitude: 003-19W, altura: 13 m

Observação actual do tempo

O boletim foi feito há 50 minutos, às 21:50 UTC
Vento 12 kt de oes-noroeste
Temperatura 4°C
Humidade 87%
Pressão 1017 hPa
Visibilidade 10 km ou mais
Poucas nuvensa uma altura de 1600 ft
Nuvens fragmentadasa uma altura de 3500 ft
Nuvens fragmentadasa uma altura de 7000 ft

METAR: EGQS 092150Z 29012KT 9999 FEW016 BKN035 BKN070 04/02 Q1017 BLU

Hora: 22:40 (22:40 UTC)

Previsão

O boletim foi feito há 2 horas e 49 minutos, às 19:51 UTC
Previsão válida de 09 às 21 UTC a 10 às 15 UTC
Vento 12 kt de oes-noroeste
Visibilidade 10 km ou mais
Poucas nuvensa uma altura de 4500 ft

TAF: EGQS 091951Z 0921/1015 29012KT 9999 FEW045

Observações e previsões do tempo de mais de 4000 aeroportos (mensagens METAR e TAF).

As estações disponíveis são os pontos amarelos e vermelhos sobre o mapa.

Mova o rato sobre o mapa para ver o nome da estação.

Depois clique no ponto para visualizar as observações e previsões meteorológicas.

Para alterar o mapa : clique nos botões verdes com uma cruz preta para aumentar o zoom; no botão verde com uma pitada de zoom; ou nas setas verdes para mapas adjacentes.


METAR-TAF: